createdAt,value
2023-01-03T00:03:37.710Z,2.13
2023-01-03T00:06:04.551Z,1.95
2023-01-03T00:10:57.493Z,2.20
2023-01-03T00:13:24.061Z,2.05
2023-01-03T00:15:50.598Z,2.15
2023-01-03T00:18:17.081Z,2.10
2023-01-03T00:20:43.621Z,2.25
2023-01-03T00:23:10.090Z,2.30
2023-01-03T00:25:36.519Z,2.10
2023-01-03T00:28:03.177Z,1.88
2023-01-03T00:30:29.854Z,2.22
2023-01-03T00:32:56.361Z,1.77
2023-01-03T00:35:22.802Z,2.13
2023-01-03T00:37:49.225Z,2.17
2023-01-03T00:40:18.712Z,1.77
2023-01-03T00:43:04.018Z,1.85
2023-01-03T00:45:35.069Z,1.90
2023-01-03T00:48:05.130Z,1.70
2023-01-03T00:50:31.562Z,1.55
2023-01-03T00:52:58.175Z,1.40
2023-01-03T00:55:24.713Z,1.60
2023-01-03T00:57:51.295Z,1.15
2023-01-03T01:00:17.890Z,1.38
2023-01-03T01:02:44.512Z,1.48
2023-01-03T01:07:37.542Z,1.10
2023-01-03T01:10:04.392Z,1.05
2023-01-03T01:12:30.884Z,1.48
2023-01-03T01:14:57.359Z,1.45
2023-01-03T01:17:23.799Z,1.40
2023-01-03T01:19:50.739Z,1.30
2023-01-03T01:22:17.236Z,1.25
2023-01-03T01:24:43.791Z,1.27
2023-01-03T01:27:10.863Z,1.30
2023-01-03T01:29:38.509Z,1.50
2023-01-03T01:32:05.969Z,1.67
2023-01-03T01:34:32.939Z,1.30
2023-01-03T01:36:59.505Z,1.45
2023-01-03T01:39:28.207Z,1.20
2023-01-03T01:42:19.864Z,1.40
2023-01-03T01:45:06.413Z,1.55
2023-01-03T01:47:53.233Z,1.60
2023-01-03T01:50:25.543Z,1.45
2023-01-03T01:53:04.930Z,1.10
2023-01-03T01:55:46.711Z,1.52
2023-01-03T01:58:15.679Z,1.60
2023-01-03T02:00:43.947Z,1.60
2023-01-03T02:03:11.929Z,1.50
2023-01-03T02:05:42.622Z,1.48
2023-01-03T02:08:09.272Z,1.50
2023-01-03T02:11:01.633Z,1.10
2023-01-03T02:13:48.482Z,1.50
2023-01-03T02:16:40.624Z,1.08
2023-01-03T02:19:42.582Z,1.30
2023-01-03T02:22:18.231Z,1.10
2023-01-03T02:25:09.547Z,1.50
2023-01-03T02:28:23.204Z,1.10
2023-01-03T02:30:58.671Z,1.20
2023-01-03T02:33:45.915Z,1.20
2023-01-03T02:36:24.570Z,1.20
2023-01-03T02:39:03.951Z,1.33
2023-01-03T02:41:44.730Z,1.30
2023-01-03T02:44:33.718Z,1.02
2023-01-03T02:47:08.516Z,1.38
2023-01-03T02:49:41.969Z,1.38
2023-01-03T02:52:14.346Z,1.15
2023-01-03T02:54:46.784Z,1.40
2023-01-03T02:57:21.312Z,1.00
2023-01-03T02:59:51.865Z,1.52
2023-01-03T03:02:21.723Z,1.10
2023-01-03T03:04:54.032Z,1.08
2023-01-03T03:07:23.902Z,1.25
2023-01-03T03:10:09.010Z,1.05
2023-01-03T03:12:57.709Z,1.40
2023-01-03T03:15:32.711Z,0.90
2023-01-03T03:18:06.373Z,0.90
2023-01-03T03:20:51.409Z,1.35
2023-01-03T03:23:42.739Z,1.55
2023-01-03T03:26:14.641Z,1.20
2023-01-03T03:28:44.787Z,1.63
2023-01-03T03:31:19.327Z,1.52
2023-01-03T03:33:51.220Z,1.30
2023-01-03T03:36:26.006Z,1.70
2023-01-03T03:38:52.579Z,1.23
2023-01-03T03:42:07.684Z,1.48
2023-01-03T03:45:02.375Z,1.52
2023-01-03T03:47:35.020Z,1.35
2023-01-03T03:50:10.837Z,1.48
2023-01-03T03:52:39.393Z,1.85
2023-01-03T03:55:13.438Z,1.35
2023-01-03T03:57:47.077Z,1.70
2023-01-03T04:00:18.189Z,1.60
2023-01-03T04:02:47.201Z,1.95
2023-01-03T04:05:17.724Z,1.10
2023-01-03T04:07:44.459Z,1.52
2023-01-03T04:12:38.184Z,1.37
2023-01-03T04:17:33.935Z,1.80
2023-01-03T04:20:00.364Z,1.40
2023-01-03T04:22:26.756Z,1.70
2023-01-03T04:24:53.252Z,1.52
2023-01-03T04:27:19.664Z,2.05
2023-01-03T04:29:46.520Z,1.50
2023-01-03T04:32:13.239Z,2.17
2023-01-03T04:37:06.395Z,1.92
2023-01-03T04:42:01.521Z,1.85
2023-01-03T04:44:28.615Z,1.98
2023-01-03T04:46:55.047Z,1.80
2023-01-03T04:49:21.613Z,1.77
2023-01-03T04:51:48.049Z,1.98
2023-01-03T04:54:14.515Z,1.55
2023-01-03T04:56:40.908Z,1.40
2023-01-03T04:59:07.446Z,2.00
2023-01-03T05:01:34.394Z,1.92
2023-01-03T05:04:02.603Z,2.47
2023-01-03T05:06:29.425Z,1.70
2023-01-03T05:08:56.248Z,1.92
2023-01-03T05:13:49.177Z,1.58
2023-01-03T05:16:16.676Z,1.67
2023-01-03T05:18:43.233Z,1.70
2023-01-03T05:21:34.116Z,2.03
2023-01-03T05:24:19.745Z,1.67
2023-01-03T05:26:47.117Z,2.30
2023-01-03T05:29:16.545Z,1.40
2023-01-03T05:31:43.142Z,2.10
2023-01-03T05:36:36.250Z,3.53
2023-01-03T05:39:02.872Z,2.20
2023-01-03T05:41:48.119Z,2.30
2023-01-03T05:44:15.025Z,1.60
2023-01-03T05:46:41.559Z,2.08
2023-01-03T05:49:08.151Z,2.42
2023-01-03T05:51:34.873Z,2.03
2023-01-03T05:56:27.816Z,2.15
2023-01-03T05:58:54.294Z,2.17
2023-01-03T06:01:20.874Z,2.35
2023-01-03T06:03:47.872Z,1.80
2023-01-03T06:06:15.969Z,2.30
2023-01-03T06:08:42.576Z,2.28
2023-01-03T06:11:11.476Z,2.97
2023-01-03T06:13:38.644Z,2.20
2023-01-03T06:16:29.899Z,2.30
2023-01-03T06:18:56.524Z,1.98
2023-01-03T06:21:23.459Z,1.95
2023-01-03T06:23:49.918Z,2.15
2023-01-03T06:26:18.285Z,2.42
2023-01-03T06:28:45.604Z,1.77
2023-01-03T06:31:15.526Z,1.60
2023-01-03T06:33:42.190Z,1.80
2023-01-03T06:36:20.565Z,2.55
2023-01-03T06:38:47.602Z,1.95
2023-01-03T06:41:14.919Z,1.77
2023-01-03T06:43:41.988Z,2.08
2023-01-03T06:46:30.144Z,1.90
2023-01-03T06:49:18.483Z,1.90
2023-01-03T06:52:06.369Z,2.28
2023-01-03T06:57:00.746Z,5.63
2023-01-03T06:59:28.682Z,2.55
2023-01-03T07:01:55.751Z,2.20
2023-01-03T07:04:24.222Z,4.70
2023-01-03T07:06:51.149Z,4.38
2023-01-03T07:09:17.901Z,3.15
2023-01-03T07:14:12.206Z,2.45
2023-01-03T07:16:41.868Z,2.30
2023-01-03T07:19:12.211Z,2.47
2023-01-03T07:21:39.103Z,2.15
2023-01-03T07:24:06.815Z,2.22
2023-01-03T07:26:34.992Z,2.58
2023-01-03T07:29:04.980Z,6.82
2023-01-03T07:31:34.809Z,3.05
2023-01-03T07:34:01.847Z,2.63
2023-01-03T07:36:29.030Z,2.47
2023-01-03T07:38:56.279Z,2.08
2023-01-03T07:41:25.663Z,2.20
2023-01-03T07:43:52.295Z,2.38
2023-01-03T07:53:26.264Z,3.30
2023-01-03T08:00:38.081Z,2.53
2023-01-03T08:06:41.607Z,3.22
2023-01-03T08:09:26.879Z,4.20
2023-01-03T08:12:12.128Z,5.70
2023-01-03T08:14:46.268Z,5.05
2023-01-03T08:29:26.316Z,4.07
2023-01-03T08:34:36.413Z,3.47
2023-01-03T08:41:12.313Z,2.63
2023-01-03T08:43:44.802Z,2.65
2023-01-03T08:46:14.661Z,3.63
2023-01-03T08:48:41.769Z,3.95
2023-01-03T08:58:22.127Z,3.03
2023-01-03T09:03:50.841Z,3.33
2023-01-03T09:06:17.755Z,3.55
2023-01-03T09:08:50.960Z,3.78
2023-01-03T09:11:21.503Z,3.25
2023-01-03T09:13:50.504Z,3.97
2023-01-03T09:16:17.283Z,3.13
2023-01-03T09:19:30.264Z,3.63
2023-01-03T09:22:05.820Z,4.55
2023-01-03T09:24:33.329Z,3.38
2023-01-03T09:27:01.278Z,3.08
2023-01-03T09:29:33.663Z,4.03
2023-01-03T09:32:20.240Z,3.00
2023-01-03T09:35:08.243Z,3.20
2023-01-03T09:41:25.787Z,4.63
2023-01-03T09:44:09.613Z,4.45
2023-01-03T09:46:37.567Z,2.90
2023-01-03T09:49:10.038Z,2.55
2023-01-03T09:52:11.521Z,2.92
2023-01-03T09:54:59.705Z,2.60
2023-01-03T09:57:48.394Z,2.72
2023-01-03T10:00:48.162Z,2.78
2023-01-03T10:03:50.245Z,3.05
2023-01-03T10:06:50.756Z,2.42
2023-01-03T10:09:23.494Z,2.58
2023-01-03T10:12:05.954Z,2.50
2023-01-03T10:14:51.601Z,3.67
2023-01-03T10:17:59.830Z,1.77
2023-01-03T10:20:45.751Z,2.63
2023-01-03T10:23:21.151Z,2.75
2023-01-03T10:25:50.436Z,2.58
2023-01-03T10:28:28.523Z,3.00
2023-01-03T10:31:25.798Z,3.10
2023-01-03T10:36:51.567Z,2.60
2023-01-03T10:39:33.260Z,6.53
2023-01-03T10:42:00.976Z,3.55
2023-01-03T10:44:32.989Z,2.83
2023-01-03T10:47:09.233Z,4.00
2023-01-03T10:49:44.333Z,4.72
2023-01-03T10:52:23.202Z,3.72
2023-01-03T10:55:11.019Z,3.95
2023-01-03T11:01:19.819Z,3.80
2023-01-03T11:04:14.255Z,5.68
2023-01-03T11:07:03.998Z,3.92
2023-01-03T11:12:41.653Z,5.63
2023-01-03T11:15:20.327Z,4.80
2023-01-03T11:22:02.802Z,5.28
2023-01-03T11:25:01.811Z,4.10
2023-01-03T11:27:47.744Z,4.30
2023-01-03T11:30:36.050Z,3.97
2023-01-03T11:33:30.330Z,4.13
2023-01-03T11:36:38.764Z,4.45
2023-01-03T11:39:16.998Z,3.50
2023-01-03T11:42:22.553Z,3.75
2023-01-03T11:45:21.310Z,4.82
2023-01-03T11:48:18.566Z,4.22
2023-01-03T11:51:26.560Z,3.83
2023-01-03T11:54:17.513Z,4.03
2023-01-03T11:56:59.373Z,3.35
2023-01-03T11:59:53.183Z,3.22
2023-01-03T12:03:02.106Z,4.45
2023-01-03T12:11:17.139Z,3.35
2023-01-03T12:13:57.178Z,3.22
2023-01-03T12:16:26.772Z,3.35
2023-01-03T12:19:25.439Z,3.20
2023-01-03T12:22:00.789Z,3.03
2023-01-03T12:24:33.506Z,3.63
2023-01-03T12:27:14.729Z,3.08
2023-01-03T12:30:03.707Z,3.10
2023-01-03T12:33:23.108Z,4.70
2023-01-03T12:36:31.467Z,3.33
2023-01-03T12:39:35.483Z,4.20
2023-01-03T12:42:05.569Z,2.67
2023-01-03T12:44:38.703Z,2.80
2023-01-03T12:47:12.106Z,2.40
2023-01-03T12:49:50.059Z,2.20
2023-01-03T12:53:00.975Z,2.25
2023-01-03T12:55:52.035Z,1.90
2023-01-03T12:58:27.472Z,1.83
2023-01-03T13:04:22.850Z,2.00
2023-01-03T13:10:47.738Z,1.30
2023-01-03T13:16:02.368Z,1.80
2023-01-03T13:41:30.492Z,2.30
2023-01-03T13:44:26.899Z,1.90
2023-01-03T13:50:34.008Z,2.30
2023-01-03T15:01:20.800Z,1.92
2023-01-03T15:03:52.175Z,2.47
2023-01-03T15:09:33.640Z,1.67
2023-01-03T15:12:05.505Z,1.80
2023-01-03T15:14:41.587Z,2.10
2023-01-03T15:17:30.015Z,1.90
2023-01-03T15:25:35.576Z,2.17
2023-01-03T15:28:25.575Z,2.15
2023-01-03T15:30:53.826Z,2.78
2023-01-03T15:33:35.800Z,1.63
2023-01-03T15:36:11.927Z,1.88
2023-01-03T15:38:47.314Z,2.05
2023-01-03T15:42:19.491Z,1.88
2023-01-03T15:44:39.395Z,2.13
2023-01-03T15:47:08.240Z,2.08
2023-01-03T15:49:42.209Z,2.00
2023-01-03T15:52:13.834Z,2.17
2023-01-03T15:54:45.086Z,1.83
2023-01-03T15:57:16.438Z,2.03
2023-01-03T15:59:44.269Z,2.55
2023-01-03T16:02:17.011Z,2.47
2023-01-03T16:04:45.536Z,2.10
2023-01-03T16:07:12.335Z,2.75
2023-01-03T16:12:10.945Z,3.00
2023-01-03T16:14:40.856Z,2.60
2023-01-03T16:17:09.124Z,3.10
2023-01-03T16:19:36.080Z,2.97
2023-01-03T16:22:36.335Z,3.17
2023-01-03T16:24:51.797Z,3.80
2023-01-03T16:27:20.979Z,2.50
2023-01-03T16:29:47.812Z,2.97
2023-01-03T16:32:19.820Z,3.08
2023-01-03T16:34:46.960Z,3.08
2023-01-03T16:37:13.387Z,3.10
2023-01-03T16:39:45.750Z,3.42
2023-01-03T16:42:15.104Z,3.03
2023-01-03T16:44:44.457Z,2.85
2023-01-03T16:47:16.056Z,3.60
2023-01-03T16:49:45.885Z,3.33
2023-01-03T16:52:20.724Z,3.22
2023-01-03T16:54:47.613Z,3.65
2023-01-03T16:57:18.743Z,3.63
2023-01-03T16:59:46.501Z,3.70
2023-01-03T17:02:14.192Z,3.90
2023-01-03T17:04:41.474Z,3.40
2023-01-03T17:07:18.747Z,4.28
2023-01-03T17:09:52.832Z,4.97
2023-01-03T17:12:23.034Z,5.10
2023-01-03T17:14:51.067Z,4.22
2023-01-03T17:17:19.763Z,4.32
2023-01-03T17:20:04.835Z,4.40
2023-01-03T17:22:32.277Z,4.38
2023-01-03T17:24:58.761Z,5.32
2023-01-03T17:27:32.584Z,4.40
2023-01-03T17:30:02.529Z,5.65
2023-01-03T17:32:30.121Z,5.38
2023-01-03T17:34:56.711Z,5.78
2023-01-03T17:37:23.793Z,5.70
2023-01-03T17:39:55.786Z,5.07
2023-01-03T17:42:23.934Z,6.65
2023-01-03T17:45:09.518Z,4.82
2023-01-03T17:47:58.921Z,4.97
2023-01-03T17:50:27.558Z,5.72
2023-01-03T17:52:56.414Z,5.05
2023-01-03T17:55:26.297Z,6.03
2023-01-03T17:57:54.317Z,6.50
2023-01-03T18:00:24.504Z,6.03
2023-01-03T18:02:52.557Z,5.47
2023-01-03T18:05:27.082Z,6.93
2023-01-03T18:07:59.384Z,6.13
2023-01-03T18:10:32.908Z,6.40
2023-01-03T18:12:59.460Z,7.45
2023-01-03T18:17:52.560Z,6.65
2023-01-03T18:20:22.411Z,6.57
2023-01-03T18:22:49.674Z,6.25
2023-01-03T18:25:22.635Z,6.82
2023-01-03T18:27:53.601Z,6.65
2023-01-03T18:30:20.230Z,6.53
2023-01-03T18:32:46.856Z,7.05
2023-01-03T18:40:09.157Z,7.28
2023-01-03T18:42:54.397Z,7.05
2023-01-03T18:45:21.177Z,7.65
2023-01-03T18:47:47.761Z,8.68
2023-01-03T18:52:47.626Z,8.05
2023-01-03T18:55:20.545Z,9.35
2023-01-03T18:57:47.952Z,8.43
2023-01-03T19:00:17.244Z,9.00
2023-01-03T19:02:43.935Z,9.57
2023-01-03T19:05:10.724Z,9.32
2023-01-03T19:10:16.061Z,8.82
2023-01-03T19:15:20.503Z,9.75
2023-01-03T19:17:47.284Z,10.60
2023-01-03T19:20:13.907Z,11.27
2023-01-03T19:25:28.870Z,10.37
2023-01-03T19:28:02.093Z,11.40
2023-01-03T19:30:37.440Z,10.75
2023-01-03T19:33:06.895Z,11.65
2023-01-03T19:35:33.638Z,13.10
2023-01-03T19:38:00.227Z,11.93
2023-01-03T19:40:31.194Z,12.40
2023-01-03T19:42:59.556Z,11.43
2023-01-03T19:45:35.344Z,11.30
2023-01-03T19:48:04.817Z,11.57
2023-01-03T19:50:33.782Z,10.70
2023-01-03T19:53:06.470Z,11.18
2023-01-03T19:55:37.338Z,12.05
2023-01-03T19:58:13.667Z,14.05
2023-01-03T20:00:44.420Z,12.63
2023-01-03T20:03:39.343Z,12.30
2023-01-03T20:06:14.719Z,11.38
2023-01-03T20:08:44.723Z,11.93
2023-01-03T20:11:27.789Z,11.43
2023-01-03T20:14:32.656Z,11.52
2023-01-03T20:17:02.523Z,13.25
2023-01-03T20:19:58.636Z,12.32
2023-01-03T20:23:03.665Z,11.77
2023-01-03T20:25:30.556Z,13.30
2023-01-03T20:31:37.967Z,13.43
2023-01-03T20:34:06.757Z,13.93
2023-01-03T20:36:45.132Z,13.68
2023-01-03T20:39:37.597Z,13.18
2023-01-03T20:42:16.563Z,13.25
2023-01-03T20:44:45.410Z,12.98
2023-01-03T20:47:15.550Z,11.98
2023-01-03T20:50:03.669Z,13.65
2023-01-03T20:52:38.930Z,12.05
2023-01-03T20:55:11.120Z,12.57
2023-01-03T20:57:47.473Z,13.07
2023-01-03T21:00:40.771Z,13.00
2023-01-03T21:03:10.486Z,13.38
2023-01-03T21:05:47.271Z,14.30
2023-01-03T21:08:41.131Z,13.30
2023-01-03T21:11:09.162Z,12.80
2023-01-03T21:13:56.699Z,12.48
2023-01-03T21:24:03.740Z,14.07
2023-01-03T21:26:35.879Z,15.35
2023-01-03T21:29:12.177Z,13.52
2023-01-03T21:31:48.304Z,12.30
2023-01-03T21:38:58.755Z,14.15
2023-01-03T21:56:49.391Z,11.82
2023-01-03T21:59:34.847Z,10.93
2023-01-03T22:02:41.721Z,10.77
2023-01-03T22:06:08.667Z,9.85
2023-01-03T22:08:43.503Z,11.40
2023-01-03T22:11:15.138Z,9.50
2023-01-03T22:13:42.170Z,9.07
2023-01-03T22:16:10.119Z,9.73
2023-01-03T22:18:41.225Z,9.10
2023-01-03T22:21:10.352Z,8.43
2023-01-03T22:23:38.597Z,8.32
2023-01-03T22:26:08.195Z,7.93
2023-01-03T22:28:37.095Z,8.35
2023-01-03T22:31:11.214Z,7.65
2023-01-03T22:33:37.922Z,7.30
2023-01-03T22:38:30.998Z,8.13
2023-01-03T22:40:57.485Z,7.45
2023-01-03T22:43:23.914Z,8.95
2023-01-03T22:45:50.480Z,8.00
2023-01-03T22:50:44.052Z,7.72
2023-01-03T22:53:10.488Z,7.53
2023-01-03T22:55:41.365Z,7.93
2023-01-03T22:58:07.952Z,7.45
2023-01-03T23:00:34.404Z,7.45
2023-01-03T23:03:01.586Z,7.40
2023-01-03T23:05:28.058Z,7.30
2023-01-03T23:07:54.496Z,7.50
2023-01-03T23:10:21.020Z,6.90
2023-01-03T23:12:58.941Z,7.25
2023-01-03T23:15:27.662Z,6.88
2023-01-03T23:17:57.100Z,7.30
2023-01-03T23:20:30.795Z,6.97
2023-01-03T23:23:02.739Z,6.38
2023-01-03T23:25:31.164Z,6.82
2023-01-03T23:27:57.637Z,7.60
2023-01-03T23:30:24.171Z,6.68
2023-01-03T23:32:50.884Z,6.00
2023-01-03T23:37:48.206Z,6.80
2023-01-03T23:40:15.170Z,6.55
2023-01-03T23:42:41.735Z,6.50
2023-01-03T23:45:08.539Z,6.22
2023-01-03T23:47:35.084Z,6.05
2023-01-03T23:50:01.590Z,6.40
2023-01-03T23:52:28.258Z,7.03
2023-01-03T23:57:28.974Z,7.20
2023-01-03T23:59:55.456Z,7.03
